createdAt,value
2023-04-24T00:01:14.110Z,13.77
2023-04-24T00:03:41.577Z,13.70
2023-04-24T00:06:11.395Z,16.30
2023-04-24T00:08:41.091Z,13.63
2023-04-24T00:11:08.313Z,13.63
2023-04-24T00:13:37.555Z,13.73
2023-04-24T00:16:07.027Z,16.80
2023-04-24T00:18:36.457Z,15.57
2023-04-24T00:21:08.739Z,13.50
2023-04-24T00:23:35.859Z,17.20
2023-04-24T00:26:05.314Z,15.37
2023-04-24T00:28:34.940Z,13.07
2023-04-24T00:31:02.352Z,15.73
2023-04-24T00:33:29.517Z,16.77
2023-04-24T00:35:59.228Z,13.10
2023-04-24T00:38:26.334Z,14.17
2023-04-24T00:40:55.030Z,14.20
2023-04-24T00:43:24.424Z,12.40
2023-04-24T00:45:51.738Z,13.53
2023-04-24T00:48:21.933Z,13.47
2023-04-24T00:50:54.285Z,19.00
2023-04-24T00:53:23.635Z,12.87
2023-04-24T00:55:51.671Z,16.10
2023-04-24T00:58:23.818Z,13.67
2023-04-24T01:00:54.159Z,18.33
2023-04-24T01:03:27.339Z,14.23
2023-04-24T01:05:56.598Z,15.67
2023-04-24T01:08:29.227Z,12.60
2023-04-24T01:11:04.157Z,16.93
2023-04-24T01:13:34.970Z,16.33
2023-04-24T01:16:04.748Z,12.07
2023-04-24T01:18:38.258Z,16.20
2023-04-24T01:21:09.998Z,15.47
2023-04-24T01:23:37.163Z,15.47
2023-04-24T01:26:04.448Z,16.97
2023-04-24T01:28:31.771Z,13.27
2023-04-24T01:31:01.213Z,13.57
2023-04-24T01:33:34.485Z,16.47
2023-04-24T01:36:04.554Z,13.03
2023-04-24T01:38:31.770Z,16.10
2023-04-24T01:40:59.082Z,15.63
2023-04-24T01:43:29.349Z,10.27
2023-04-24T01:45:56.497Z,10.90
2023-04-24T01:48:23.853Z,12.00
2023-04-24T01:50:51.003Z,14.77
2023-04-24T01:53:22.791Z,13.00
2023-04-24T01:55:49.949Z,12.50
2023-04-24T01:58:17.216Z,12.13
2023-04-24T02:00:44.472Z,11.07
2023-04-24T02:03:18.935Z,10.80
2023-04-24T02:05:48.326Z,10.13
2023-04-24T02:08:15.594Z,11.37
2023-04-24T02:10:45.263Z,10.70
2023-04-24T02:13:12.381Z,12.17
2023-04-24T02:15:46.233Z,9.33
2023-04-24T02:18:16.587Z,9.87
2023-04-24T02:20:43.739Z,11.63
2023-04-24T02:23:10.979Z,10.60
2023-04-24T02:25:40.668Z,8.43
2023-04-24T02:28:12.205Z,11.37
2023-04-24T02:30:39.354Z,9.67
2023-04-24T02:33:06.594Z,9.37
2023-04-24T02:35:36.164Z,9.13
2023-04-24T02:38:08.129Z,12.13
2023-04-24T02:40:35.269Z,12.60
2023-04-24T02:43:04.844Z,9.37
2023-04-24T02:45:35.765Z,9.87
2023-04-24T02:48:07.417Z,11.60
2023-04-24T02:50:37.074Z,13.07
2023-04-24T02:53:06.697Z,11.50
2023-04-24T02:55:33.866Z,11.50
2023-04-24T02:58:03.615Z,10.33
2023-04-24T03:00:33.418Z,10.60
2023-04-24T03:03:06.626Z,11.73
2023-04-24T03:05:33.929Z,12.17
2023-04-24T03:08:03.567Z,11.17
2023-04-24T03:10:30.867Z,9.77
2023-04-24T03:12:58.074Z,10.33
2023-04-24T03:15:30.189Z,10.97
2023-04-24T03:17:57.481Z,10.50
2023-04-24T03:20:27.294Z,7.70
2023-04-24T03:22:58.147Z,13.00
2023-04-24T03:25:25.300Z,9.63
2023-04-24T03:27:55.900Z,9.30
2023-04-24T03:30:25.307Z,7.63
2023-04-24T03:32:56.949Z,8.10
2023-04-24T03:35:24.213Z,10.57
2023-04-24T03:37:53.826Z,8.33
2023-04-24T03:40:20.944Z,8.73
2023-04-24T03:42:50.252Z,8.60
2023-04-24T03:45:19.609Z,10.63
2023-04-24T03:47:49.058Z,7.40
2023-04-24T03:50:16.324Z,8.77
2023-04-24T03:52:45.957Z,9.83
2023-04-24T03:55:15.992Z,6.93
2023-04-24T03:57:43.160Z,8.17
2023-04-24T04:00:11.029Z,8.33
2023-04-24T04:02:38.604Z,7.03
2023-04-24T04:05:12.457Z,6.10
2023-04-24T04:07:42.117Z,7.10
2023-04-24T04:10:13.713Z,7.87
2023-04-24T04:12:45.516Z,7.40
2023-04-24T04:15:14.985Z,6.37
2023-04-24T04:17:42.465Z,6.87
2023-04-24T04:20:11.170Z,6.63
2023-04-24T04:22:38.574Z,4.57
2023-04-24T04:25:09.401Z,5.70
2023-04-24T04:27:37.319Z,6.03
2023-04-24T04:30:05.849Z,3.63
2023-04-24T04:32:42.691Z,5.27
2023-04-24T04:35:10.423Z,4.37
2023-04-24T04:37:40.998Z,4.97
2023-04-24T04:40:12.924Z,4.17
2023-04-24T04:42:42.507Z,4.33
2023-04-24T04:45:12.629Z,4.53
2023-04-24T04:47:42.121Z,4.63
2023-04-24T04:50:12.238Z,4.03
2023-04-24T04:52:43.736Z,3.33
2023-04-24T04:55:14.383Z,3.97
2023-04-24T04:57:41.569Z,5.00
2023-04-24T05:00:12.145Z,5.70
2023-04-24T05:02:41.754Z,5.30
2023-04-24T05:05:12.287Z,5.33
2023-04-24T05:07:41.888Z,7.93
2023-04-24T05:10:12.671Z,6.43
2023-04-24T05:12:39.810Z,7.37
2023-04-24T05:15:07.521Z,7.63
2023-04-24T05:17:44.786Z,10.37
2023-04-24T05:20:14.533Z,7.50
2023-04-24T05:22:44.055Z,7.10
2023-04-24T05:25:13.469Z,7.83
2023-04-24T05:27:43.742Z,9.37
2023-04-24T05:30:13.809Z,8.30
2023-04-24T05:32:41.076Z,10.30
2023-04-24T05:35:08.742Z,9.10
2023-04-24T05:37:35.872Z,10.10
2023-04-24T05:40:05.404Z,7.67
2023-04-24T05:42:33.340Z,11.33
2023-04-24T05:45:00.520Z,9.33
2023-04-24T05:47:27.656Z,10.83
2023-04-24T05:49:57.083Z,10.67
2023-04-24T05:52:26.909Z,10.30
2023-04-24T05:54:54.093Z,8.47
2023-04-24T05:57:21.288Z,10.00
2023-04-24T05:59:48.499Z,10.07
2023-04-24T06:02:15.730Z,10.10
2023-04-24T06:04:43.186Z,9.03
2023-04-24T06:07:14.232Z,11.07
2023-04-24T06:09:43.921Z,15.10
2023-04-24T06:12:11.276Z,16.30
2023-04-24T06:14:40.848Z,12.13
2023-04-24T06:17:07.957Z,14.23
2023-04-24T06:19:42.453Z,13.17
2023-04-24T06:22:11.047Z,9.83
2023-04-24T06:24:41.123Z,12.07
2023-04-24T06:27:08.717Z,16.57
2023-04-24T06:29:36.510Z,15.80
2023-04-24T06:32:05.850Z,13.63
2023-04-24T06:34:37.697Z,14.87
2023-04-24T06:37:07.551Z,12.53
2023-04-24T06:39:34.660Z,12.43
2023-04-24T06:42:04.161Z,13.47
2023-04-24T06:44:31.288Z,15.13
2023-04-24T06:47:00.838Z,15.13
2023-04-24T06:49:28.028Z,14.03
2023-04-24T06:51:55.185Z,14.57
2023-04-24T06:54:24.706Z,15.17
2023-04-24T06:56:55.646Z,14.23
2023-04-24T06:59:25.220Z,13.63
2023-04-24T07:01:55.699Z,15.00
2023-04-24T07:04:23.506Z,21.47
2023-04-24T07:06:55.438Z,18.07
2023-04-24T07:09:26.785Z,20.23
2023-04-24T07:11:57.529Z,14.80
2023-04-24T07:14:30.023Z,20.27
2023-04-24T07:16:59.649Z,18.70
2023-04-24T07:19:32.164Z,17.40
2023-04-24T07:22:01.477Z,18.10
2023-04-24T07:27:02.136Z,17.40
2023-04-24T07:29:31.507Z,19.33
2023-04-24T07:32:04.266Z,19.03
2023-04-24T07:34:31.613Z,17.33
2023-04-24T07:36:58.769Z,18.40
2023-04-24T07:39:28.716Z,17.83
2023-04-24T07:41:59.698Z,18.17
2023-04-24T07:44:27.734Z,17.40
2023-04-24T07:46:57.609Z,19.73
2023-04-24T07:49:28.869Z,19.00
2023-04-24T07:51:56.115Z,15.57
2023-04-24T07:54:27.766Z,19.63
2023-04-24T07:56:59.510Z,17.40
2023-04-24T07:59:29.026Z,15.03
2023-04-24T08:01:56.627Z,17.47
2023-04-24T08:04:23.923Z,19.23
2023-04-24T08:06:53.533Z,16.43
2023-04-24T08:09:27.539Z,16.87
2023-04-24T08:11:55.020Z,14.13
2023-04-24T08:14:22.265Z,16.50
2023-04-24T08:16:49.460Z,10.93
2023-04-24T08:19:18.218Z,18.20
2023-04-24T08:21:50.382Z,16.50
2023-04-24T08:24:17.641Z,18.83
2023-04-24T08:26:45.125Z,16.00
2023-04-24T08:29:12.345Z,13.23
2023-04-24T08:31:39.754Z,14.77
2023-04-24T08:34:06.993Z,13.23
2023-04-24T08:36:46.620Z,10.57
2023-04-24T08:39:21.513Z,15.57
2023-04-24T08:41:55.990Z,12.83
2023-04-24T08:44:25.542Z,13.20
2023-04-24T08:46:56.837Z,12.80
2023-04-24T08:49:26.802Z,13.27
2023-04-24T08:51:54.467Z,11.40
2023-04-24T08:54:28.654Z,14.87
2023-04-24T08:57:04.808Z,13.53
2023-04-24T08:59:33.675Z,20.40
2023-04-24T09:02:01.209Z,13.63
2023-04-24T09:04:31.412Z,15.90
2023-04-24T09:07:04.539Z,18.00
2023-04-24T09:09:33.998Z,14.07
2023-04-24T09:12:04.826Z,15.67
2023-04-24T09:14:33.172Z,16.43
2023-04-24T09:17:00.360Z,16.33
2023-04-24T09:19:27.560Z,11.50
2023-04-24T09:21:55.331Z,16.70
2023-04-24T09:24:25.027Z,15.77
2023-04-24T09:27:05.140Z,12.53
2023-04-24T09:29:34.638Z,14.00
2023-04-24T09:32:23.171Z,17.67
2023-04-24T09:35:13.160Z,12.70
2023-04-24T09:37:45.192Z,12.23
2023-04-24T09:40:20.748Z,13.90
2023-04-24T09:42:59.021Z,14.13
2023-04-24T09:45:36.109Z,11.20
2023-04-24T09:48:07.512Z,13.73
2023-04-24T09:50:39.040Z,10.77
2023-04-24T09:53:10.026Z,17.93
2023-04-24T09:55:47.386Z,14.97
2023-04-24T09:58:17.115Z,9.93
2023-04-24T10:00:48.836Z,11.40
2023-04-24T10:03:16.133Z,10.73
2023-04-24T10:05:47.939Z,11.73
2023-04-24T10:08:17.929Z,10.53
2023-04-24T10:10:49.244Z,10.10
2023-04-24T10:13:21.468Z,9.20
2023-04-24T10:15:56.460Z,8.77
2023-04-24T10:18:28.396Z,10.23
2023-04-24T10:20:56.156Z,7.67
2023-04-24T10:23:26.904Z,11.27
2023-04-24T10:25:56.701Z,9.83
2023-04-24T10:28:28.035Z,10.13
2023-04-24T10:30:58.261Z,9.27
2023-04-24T10:33:28.090Z,9.33
2023-04-24T10:35:59.386Z,10.50
2023-04-24T10:38:30.034Z,10.37
2023-04-24T10:41:20.764Z,10.97
2023-04-24T10:43:49.699Z,7.83
2023-04-24T10:46:22.567Z,9.93
2023-04-24T10:48:56.903Z,10.23
2023-04-24T10:51:25.535Z,8.53
2023-04-24T10:53:58.462Z,8.50
2023-04-24T10:56:31.763Z,9.13
2023-04-24T10:58:59.318Z,10.33
2023-04-24T11:01:30.503Z,8.40
2023-04-24T11:04:05.119Z,10.47
2023-04-24T11:06:37.164Z,9.37
2023-04-24T11:09:14.173Z,9.33
2023-04-24T11:11:46.864Z,9.77
2023-04-24T11:14:19.704Z,8.87
2023-04-24T11:16:58.684Z,8.17
2023-04-24T11:19:27.369Z,7.03
2023-04-24T11:21:57.751Z,8.47
2023-04-24T11:24:34.079Z,13.37
2023-04-24T11:27:23.405Z,11.90
2023-04-24T11:29:56.730Z,9.07
2023-04-24T11:32:30.360Z,8.80
2023-04-24T11:35:02.329Z,12.40
2023-04-24T11:37:38.356Z,8.67
2023-04-24T11:40:16.684Z,6.57
2023-04-24T11:42:48.132Z,7.10
2023-04-24T11:45:33.191Z,8.80
2023-04-24T11:48:00.473Z,7.97
2023-04-24T11:50:28.921Z,8.53
2023-04-24T11:52:56.997Z,8.70
2023-04-24T11:55:24.233Z,7.83
2023-04-24T11:57:54.833Z,8.20
2023-04-24T12:00:26.447Z,13.37
2023-04-24T12:03:06.995Z,10.07
2023-04-24T12:05:35.962Z,11.97
2023-04-24T12:08:03.638Z,11.57
2023-04-24T12:10:32.333Z,7.53
2023-04-24T12:13:02.408Z,8.73
2023-04-24T12:15:31.884Z,10.17
2023-04-24T12:18:03.664Z,7.40
2023-04-24T12:20:36.528Z,11.97
2023-04-24T12:23:08.163Z,8.03
2023-04-24T12:25:37.496Z,8.83
2023-04-24T12:28:04.751Z,8.17
2023-04-24T12:30:38.481Z,8.20
2023-04-24T12:33:10.676Z,7.87
2023-04-24T12:35:40.128Z,7.97
2023-04-24T12:38:14.201Z,12.97
2023-04-24T12:40:43.075Z,8.57
2023-04-24T12:43:21.157Z,7.77
2023-04-24T12:45:51.679Z,7.33
2023-04-24T12:48:18.857Z,8.10
2023-04-24T12:50:47.321Z,10.23
2023-04-24T12:53:16.217Z,8.67
2023-04-24T12:55:43.591Z,5.87
2023-04-24T12:58:15.496Z,6.97
2023-04-24T13:00:44.697Z,8.73
2023-04-24T13:03:14.800Z,6.63
2023-04-24T13:05:45.017Z,6.20
2023-04-24T13:08:14.384Z,5.47
2023-04-24T13:10:42.116Z,8.63
2023-04-24T13:13:09.920Z,7.57
2023-04-24T13:15:39.213Z,7.33
2023-04-24T13:18:11.029Z,8.40
2023-04-24T13:20:45.083Z,8.40
2023-04-24T13:23:14.750Z,8.83
2023-04-24T13:25:44.384Z,9.33
2023-04-24T13:28:11.523Z,16.10
2023-04-24T13:30:45.862Z,6.10
2023-04-24T13:33:13.113Z,6.10
2023-04-24T13:35:42.476Z,5.50
2023-04-24T13:38:12.606Z,5.03
2023-04-24T13:40:39.822Z,7.17
2023-04-24T13:43:09.501Z,6.90
2023-04-24T13:45:39.029Z,6.07
2023-04-24T13:48:06.264Z,7.00
2023-04-24T13:50:36.046Z,5.07
2023-04-24T13:53:05.473Z,6.80
2023-04-24T13:55:37.372Z,6.13
2023-04-24T14:00:34.745Z,9.67
2023-04-24T14:03:04.835Z,6.07
2023-04-24T14:05:38.345Z,5.63
2023-04-24T14:08:10.940Z,4.37
2023-04-24T14:10:38.122Z,5.97
2023-04-24T14:13:05.467Z,3.60
2023-04-24T14:15:36.905Z,5.00
2023-04-24T14:18:11.242Z,6.97
2023-04-24T14:20:41.146Z,11.50
2023-04-24T14:23:10.375Z,5.93
2023-04-24T14:25:40.157Z,7.00
2023-04-24T14:28:12.816Z,5.63
2023-04-24T14:30:44.441Z,7.43
2023-04-24T14:33:13.121Z,5.40
2023-04-24T14:35:43.910Z,5.10
2023-04-24T14:38:11.479Z,8.10
2023-04-24T14:41:04.752Z,5.07
2023-04-24T14:43:28.293Z,5.30
2023-04-24T14:46:00.190Z,3.80
2023-04-24T14:48:32.078Z,4.27
2023-04-24T14:51:03.849Z,4.63
2023-04-24T14:53:31.380Z,7.13
2023-04-24T14:55:58.614Z,5.27
2023-04-24T14:58:30.742Z,6.00
2023-04-24T15:01:00.707Z,5.53
2023-04-24T15:03:30.511Z,7.40
2023-04-24T15:06:00.685Z,4.03
2023-04-24T15:08:30.238Z,3.90
2023-04-24T15:10:59.574Z,5.37
2023-04-24T15:13:33.688Z,6.83
2023-04-24T15:16:03.292Z,5.60
2023-04-24T15:18:30.587Z,5.63
2023-04-24T15:21:00.325Z,5.07
2023-04-24T15:23:34.678Z,3.63
2023-04-24T15:26:02.717Z,5.97
2023-04-24T15:28:29.909Z,8.43
2023-04-24T15:30:57.053Z,6.87
2023-04-24T15:33:24.473Z,4.70
2023-04-24T15:35:51.978Z,6.00
2023-04-24T15:38:21.256Z,5.67
2023-04-24T15:40:53.261Z,5.60
2023-04-24T15:43:20.397Z,5.33
2023-04-24T15:45:57.679Z,4.50
2023-04-24T15:48:24.929Z,5.80
2023-04-24T15:50:54.260Z,4.53
2023-04-24T15:53:26.344Z,4.33
2023-04-24T15:55:57.989Z,5.63
2023-04-24T15:58:27.564Z,4.30
2023-04-24T16:00:57.063Z,5.40
2023-04-24T16:03:28.739Z,5.70
2023-04-24T16:05:58.319Z,7.23
2023-04-24T16:08:27.648Z,4.17
2023-04-24T16:11:01.246Z,3.33
2023-04-24T16:13:29.596Z,3.03
2023-04-24T16:15:56.882Z,3.13
2023-04-24T16:18:26.625Z,4.33
2023-04-24T16:20:56.840Z,3.93
2023-04-24T16:23:28.869Z,4.27
2023-04-24T16:26:01.156Z,3.60
2023-04-24T16:28:31.020Z,4.77
2023-04-24T16:31:00.519Z,3.53
2023-04-24T16:33:31.434Z,5.57
2023-04-24T16:35:58.559Z,5.87
2023-04-24T16:38:26.566Z,4.47
2023-04-24T16:40:56.128Z,4.57
2023-04-24T16:43:27.161Z,3.50
2023-04-24T16:45:54.682Z,4.33
2023-04-24T16:48:21.819Z,4.60
2023-04-24T16:50:51.210Z,4.33
2023-04-24T16:53:18.323Z,3.83
2023-04-24T16:55:46.420Z,3.13
2023-04-24T16:58:15.982Z,3.27
2023-04-24T17:00:46.597Z,4.23
2023-04-24T17:03:16.418Z,2.73
2023-04-24T17:05:43.960Z,3.63
2023-04-24T17:08:14.238Z,4.27
2023-04-24T17:10:46.450Z,3.97
2023-04-24T17:13:18.359Z,3.73
2023-04-24T17:15:47.963Z,4.27
2023-04-24T17:18:18.363Z,3.43
2023-04-24T17:20:51.322Z,4.57
2023-04-24T17:23:24.403Z,4.53
2023-04-24T17:25:53.622Z,4.93
2023-04-24T17:28:32.429Z,4.23
2023-04-24T17:31:01.990Z,4.53
2023-04-24T17:33:30.636Z,3.23
2023-04-24T17:35:58.934Z,3.97
2023-04-24T17:38:28.257Z,3.00
2023-04-24T17:40:58.542Z,3.93
2023-04-24T17:43:26.278Z,3.93
2023-04-24T17:45:59.338Z,2.97
2023-04-24T17:48:27.024Z,4.27
2023-04-24T17:50:56.400Z,2.63
2023-04-24T17:53:23.574Z,3.83
2023-04-24T17:55:50.846Z,4.97
2023-04-24T17:58:20.714Z,3.80
2023-04-24T18:00:52.595Z,2.93
2023-04-24T18:03:26.720Z,4.30
2023-04-24T18:05:56.461Z,3.27
2023-04-24T18:08:26.170Z,7.23
2023-04-24T18:10:53.355Z,5.23
2023-04-24T18:13:23.027Z,4.53
2023-04-24T18:15:54.995Z,4.53
2023-04-24T18:18:24.602Z,4.27
2023-04-24T18:20:51.737Z,2.83
2023-04-24T18:23:19.873Z,4.10
2023-04-24T18:25:48.009Z,4.37
2023-04-24T18:28:18.368Z,7.17
2023-04-24T18:30:47.905Z,3.83
2023-04-24T18:33:19.036Z,3.80
2023-04-24T18:35:48.729Z,3.43
2023-04-24T18:38:15.966Z,3.23
2023-04-24T18:40:43.094Z,6.20
2023-04-24T18:43:12.803Z,3.27
2023-04-24T18:45:39.912Z,8.07
2023-04-24T18:48:11.373Z,8.43
2023-04-24T18:50:40.785Z,5.37
2023-04-24T18:53:15.305Z,7.87
2023-04-24T18:55:42.576Z,7.97
2023-04-24T18:58:12.294Z,9.17
2023-04-24T19:00:41.972Z,7.33
2023-04-24T19:03:09.805Z,4.10
2023-04-24T19:05:41.709Z,5.80
2023-04-24T19:08:08.885Z,11.77
2023-04-24T19:10:38.255Z,6.30
2023-04-24T19:13:10.881Z,7.43
2023-04-24T19:15:38.024Z,7.70
2023-04-24T19:18:05.205Z,9.50
2023-04-24T19:20:34.964Z,5.80
2023-04-24T19:23:02.184Z,8.60
2023-04-24T19:25:29.350Z,7.27
2023-04-24T19:27:58.888Z,10.40
2023-04-24T19:30:28.502Z,11.33
2023-04-24T19:32:57.720Z,6.73
2023-04-24T19:35:24.918Z,6.63
2023-04-24T19:37:52.064Z,8.13
2023-04-24T19:40:19.366Z,7.63
2023-04-24T19:42:51.769Z,5.40
2023-04-24T19:45:21.557Z,7.00
2023-04-24T19:47:51.529Z,6.43
2023-04-24T19:50:20.966Z,5.27
2023-04-24T19:52:58.204Z,5.30
2023-04-24T19:55:27.588Z,8.53
2023-04-24T19:57:59.433Z,7.20
2023-04-24T20:00:26.865Z,7.50
2023-04-24T20:02:54.261Z,6.23
2023-04-24T20:05:24.252Z,8.43
2023-04-24T20:07:53.898Z,6.37
2023-04-24T20:10:21.246Z,7.60
2023-04-24T20:12:51.176Z,7.47
2023-04-24T20:15:20.914Z,5.67
2023-04-24T20:17:48.385Z,7.17
2023-04-24T20:20:17.796Z,6.30
2023-04-24T20:22:50.130Z,6.90
2023-04-24T20:25:17.470Z,8.17
2023-04-24T20:27:44.651Z,7.57
2023-04-24T20:30:15.961Z,7.43
2023-04-24T20:32:43.838Z,7.17
2023-04-24T20:35:12.123Z,5.90
2023-04-24T20:37:41.444Z,7.37
2023-04-24T20:40:11.138Z,7.57
2023-04-24T20:42:38.371Z,7.43
2023-04-24T20:45:06.392Z,7.63
2023-04-24T20:47:33.716Z,7.80
2023-04-24T20:50:02.960Z,9.03
2023-04-24T20:52:32.871Z,7.13
2023-04-24T20:55:07.341Z,9.27
2023-04-24T20:57:34.582Z,7.97
2023-04-24T21:00:08.902Z,6.53
2023-04-24T21:02:38.415Z,7.47
2023-04-24T21:05:10.785Z,6.27
2023-04-24T21:07:42.484Z,8.93
2023-04-24T21:10:10.116Z,7.50
2023-04-24T21:12:37.260Z,8.63
2023-04-24T21:15:07.560Z,7.53
2023-04-24T21:17:39.644Z,6.20
2023-04-24T21:20:10.785Z,7.83
2023-04-24T21:22:40.361Z,8.73
2023-04-24T21:25:10.134Z,6.60
2023-04-24T21:27:41.013Z,9.70
2023-04-24T21:30:11.264Z,6.70
2023-04-24T21:32:43.425Z,8.00
2023-04-24T21:35:10.716Z,8.20
2023-04-24T21:37:39.297Z,8.43
2023-04-24T21:40:11.391Z,7.30
2023-04-24T21:42:39.676Z,8.30
2023-04-24T21:45:12.617Z,9.50
2023-04-24T21:47:39.804Z,7.10
2023-04-24T21:50:07.605Z,8.83
2023-04-24T21:52:34.808Z,10.17
2023-04-24T21:55:01.915Z,10.27
2023-04-24T21:57:29.823Z,9.03
2023-04-24T21:59:59.308Z,8.63
2023-04-24T22:02:29.278Z,8.43
2023-04-24T22:04:57.552Z,6.70
2023-04-24T22:07:26.905Z,10.20
2023-04-24T22:09:54.059Z,11.17
2023-04-24T22:12:21.463Z,8.90
2023-04-24T22:14:51.028Z,10.93
2023-04-24T22:17:20.398Z,11.80
2023-04-24T22:19:47.484Z,7.93
2023-04-24T22:22:21.851Z,8.23
2023-04-24T22:24:51.261Z,11.03
2023-04-24T22:27:18.375Z,9.70
2023-04-24T22:29:45.546Z,9.43
2023-04-24T22:32:12.836Z,12.47
2023-04-24T22:34:42.207Z,9.00
2023-04-24T22:37:16.170Z,11.70
2023-04-24T22:39:43.283Z,9.57
2023-04-24T22:42:12.756Z,8.20
2023-04-24T22:44:39.888Z,7.23
2023-04-24T22:47:11.892Z,10.27
2023-04-24T22:49:39.852Z,12.60
2023-04-24T22:52:13.629Z,14.03
2023-04-24T22:54:45.745Z,9.23
2023-04-24T22:57:17.371Z,7.40
2023-04-24T22:59:49.576Z,10.13
2023-04-24T23:02:16.994Z,8.50
2023-04-24T23:04:44.225Z,10.57
2023-04-24T23:07:18.477Z,9.30
2023-04-24T23:09:45.652Z,10.67
2023-04-24T23:12:15.509Z,10.20
2023-04-24T23:14:45.528Z,11.57
2023-04-24T23:17:14.823Z,14.17
2023-04-24T23:19:41.990Z,11.27
2023-04-24T23:22:09.198Z,12.37
2023-04-24T23:24:36.332Z,11.93
2023-04-24T23:27:08.373Z,14.83
2023-04-24T23:29:35.568Z,11.53
2023-04-24T23:32:07.500Z,11.73
2023-04-24T23:34:39.412Z,12.37
2023-04-24T23:37:11.521Z,12.73
2023-04-24T23:39:38.702Z,12.73
2023-04-24T23:42:07.840Z,14.97
2023-04-24T23:44:35.165Z,11.07
2023-04-24T23:47:04.689Z,12.47
2023-04-24T23:49:31.796Z,12.30
2023-04-24T23:52:01.079Z,9.97
2023-04-24T23:54:28.206Z,12.53
2023-04-24T23:57:03.153Z,11.10
2023-04-24T23:59:30.733Z,12.73
